The Plains, VA (20198)

11:30 AM EST on January 26, 2015 (GMT -0500)
Wakefield School | Change Station
CLOSE
Current Station
Personal Weather Station
Location: The Plains, VA
Elevation: 554 ft
Nearby Weather Stations
Active Advisory: Winter Weather Advisory Active Notice: Public Information Statement

Elev 554 ft 38.86 °N, 77.78 °W | Updated 8 seconds ago

Overcast
Overcast
33.6 °F
Feels Like 34 °F
N
0.0
Wind Variable Wind from SE
Gusts 5.0 mph

Today
High -- | Low -- °F
--% Chance of Precip.
Yesterday
High -- | Low -- °F
Precip. -- in
7:22 AM 5:25 PM
Waxing Crescent, 44% visible
Pressure 29.78 in
Visibility 3.0 miles
Clouds Overcast 800 ft
Windchill 34 °F
Dew Point 34 °F
Humidity 100%
Rainfall 0.72 in
Snow Depth Not available.
UV 1 out of 12
Pollen .10 out of 12
Air Quality Not available.
Flu Activity Not available.
SPECI KHEF 261620Z 05003KT 3SM -RA BR OVC008 02/02 A2978

More Conditions Fewer Conditions

Pressure 29.78 in
Visibility 3.0 miles
Clouds Overcast 800 ft
Windchill 34 °F
Dew Point 34 °F
Humidity 100%
Rainfall 0.72 in
Snow Depth Not available.
UV 1 out of 12
Pollen .10 out of 12
Air Quality Not available.
Flu Activity Not available.
SPECI KHEF 261620Z 05003KT 3SM -RA BR OVC008 02/02 A2978

More Conditions Fewer Conditions

10-Day Weather Forecast

Almanac

Astronomy

Jan. 26, 2015 Rise Set
Actual Time
Civil Twilight
Nautical Twilight
Astronomical Twilight
Moon
Length of Visible Light
Length of Day
Tomorrow will be .
, % of the Moon is Illuminated

Today's Extremes

State Highs State Lows

Community

WunderPhotos

Upload Photos

1,790,272 photos uploaded!

WunderBlogs® & News

Nearby

Air Quality

  Air Quality AQ Index Pollutant
Not available.

Snow Depth

Station Depth Elevation

Earthquake Activity

City Distance Mag. Time & Date
Minimum magnitude displayed is 2.5.

Coastal Water Temperatures

Place Temperature

Nearby Weather Stations